createdAt,value
2022-08-26T00:02:02.207Z,86.50
2022-08-26T00:04:30.152Z,86.50
2022-08-26T00:07:00.264Z,86.50
2022-08-26T00:09:27.214Z,86.30
2022-08-26T00:11:54.465Z,86.40
2022-08-26T00:14:24.182Z,86.20
2022-08-26T00:16:55.392Z,86.30
2022-08-26T00:19:24.983Z,86.20
2022-08-26T00:21:51.790Z,86.30
2022-08-26T00:24:24.370Z,86.50
2022-08-26T00:26:52.130Z,86.60
2022-08-26T00:29:25.193Z,86.50
2022-08-26T00:31:52.299Z,86.60
2022-08-26T00:34:21.809Z,86.40
2022-08-26T00:36:51.822Z,86.60
2022-08-26T00:39:27.989Z,86.60
2022-08-26T00:41:54.774Z,86.50
2022-08-26T00:44:27.852Z,86.60
2022-08-26T00:47:00.008Z,86.40
2022-08-26T00:49:41.886Z,86.50
2022-08-26T00:55:49.266Z,86.60
2022-08-26T00:58:16.064Z,86.70
2022-08-26T01:00:43.157Z,86.60
2022-08-26T01:03:12.833Z,86.40
2022-08-26T01:05:46.390Z,86.30
2022-08-26T01:08:16.135Z,86.40
2022-08-26T01:10:52.548Z,86.00
2022-08-26T01:13:37.419Z,86.00
2022-08-26T01:16:14.131Z,86.10
2022-08-26T01:18:44.005Z,86.10
2022-08-26T01:24:30.229Z,86.20
2022-08-26T01:27:07.984Z,86.40
2022-08-26T01:29:36.131Z,86.60
2022-08-26T01:34:57.968Z,86.70
2022-08-26T01:37:45.130Z,86.60
2022-08-26T01:43:20.109Z,87.10
2022-08-26T01:45:49.774Z,87.10
2022-08-26T01:48:27.419Z,87.10
2022-08-26T01:51:08.708Z,87.10
2022-08-26T01:54:21.132Z,87.10
2022-08-26T02:45:23.300Z,88.20
2022-08-26T03:49:05.523Z,88.60
2022-08-26T03:51:34.311Z,88.80
2022-08-26T03:54:01.184Z,88.80
2022-08-26T03:56:50.251Z,88.70
2022-08-26T04:05:29.875Z,89.30
2022-08-26T04:07:56.875Z,89.20
2022-08-26T04:10:28.475Z,89.30
2022-08-26T04:13:29.033Z,89.20
2022-08-26T04:15:56.019Z,89.10
2022-08-26T04:18:28.502Z,88.90
2022-08-26T04:21:18.993Z,88.20
2022-08-26T04:23:52.025Z,87.80
2022-08-26T04:26:23.067Z,87.40
2022-08-26T04:32:34.090Z,87.50
2022-08-26T04:35:07.398Z,87.60
2022-08-26T04:37:38.569Z,87.40
2022-08-26T04:40:11.495Z,87.20
2022-08-26T04:42:38.249Z,87.30
2022-08-26T05:01:39.492Z,87.20
2022-08-26T05:04:07.971Z,87.20
2022-08-26T05:09:43.973Z,87.30
2022-08-26T05:12:11.087Z,87.50
2022-08-26T05:14:37.833Z,87.50
2022-08-26T05:17:04.851Z,87.50
2022-08-26T05:23:14.430Z,87.60
2022-08-26T05:25:55.813Z,87.70
2022-08-26T05:28:26.427Z,87.70
2022-08-26T05:30:53.355Z,87.70
2022-08-26T05:33:20.329Z,87.60
2022-08-26T05:35:47.049Z,87.80
2022-08-26T05:38:25.704Z,87.60
2022-08-26T05:41:23.341Z,87.50
2022-08-26T05:43:58.632Z,87.50
2022-08-26T05:46:31.705Z,87.70
2022-08-26T05:48:58.537Z,87.20
2022-08-26T05:51:26.383Z,87.00
2022-08-26T05:54:06.825Z,86.80
2022-08-26T05:56:33.693Z,86.80
2022-08-26T05:59:14.967Z,86.80
2022-08-26T06:01:44.871Z,86.70
2022-08-26T06:04:13.910Z,86.60
2022-08-26T06:06:48.152Z,86.60
2022-08-26T06:09:26.787Z,85.30
2022-08-26T06:12:19.862Z,84.30
2022-08-26T06:14:48.956Z,84.50
2022-08-26T06:17:15.865Z,83.80
2022-08-26T06:19:42.684Z,83.10
2022-08-26T06:22:09.392Z,83.30
2022-08-26T06:24:43.981Z,83.10
2022-08-26T06:27:17.099Z,82.90
2022-08-26T06:29:47.150Z,82.00
2022-08-26T06:32:16.247Z,81.20
2022-08-26T06:34:49.996Z,79.80
2022-08-26T06:37:28.770Z,80.00
2022-08-26T06:45:44.772Z,79.20
2022-08-26T06:48:20.600Z,79.50
2022-08-26T07:09:55.757Z,81.80
2022-08-26T07:12:28.184Z,81.90
2022-08-26T07:31:56.309Z,79.90
2022-08-26T07:38:16.795Z,79.50
2022-08-26T07:40:52.734Z,79.50
2022-08-26T07:43:29.817Z,79.50
2022-08-26T07:45:57.313Z,79.20
2022-08-26T07:48:24.527Z,79.40
2022-08-26T07:51:13.409Z,79.20
2022-08-26T07:53:40.541Z,78.40
2022-08-26T07:56:08.441Z,78.50
2022-08-26T07:58:51.302Z,78.40
2022-08-26T08:01:40.204Z,79.20
2022-08-26T08:04:28.413Z,78.10
2022-08-26T08:06:59.069Z,78.40
2022-08-26T08:12:14.281Z,78.30
2022-08-26T08:14:42.229Z,77.70
2022-08-26T08:34:24.367Z,77.10
2022-08-26T08:46:21.172Z,75.40
2022-08-26T08:48:54.928Z,76.10
2022-08-26T08:52:11.551Z,75.70
2022-08-26T09:01:59.048Z,74.70
2022-08-26T09:08:23.122Z,74.30
2022-08-26T09:17:38.205Z,74.10
2022-08-26T09:20:37.813Z,74.00
2022-08-26T09:23:18.517Z,74.60
2022-08-26T09:34:28.857Z,76.00
2022-08-26T10:04:05.727Z,73.90
2022-08-26T10:07:08.884Z,74.00
2022-08-26T10:09:43.409Z,75.20
2022-08-26T10:12:22.354Z,75.90
2022-08-26T10:15:02.235Z,75.70
2022-08-26T10:18:14.162Z,75.70
2022-08-26T10:24:01.080Z,75.20
2022-08-26T10:29:58.748Z,74.20
2022-08-26T10:32:53.556Z,74.20
2022-08-26T10:36:12.321Z,73.80
2022-08-26T10:44:58.468Z,72.30
2022-08-26T10:47:34.716Z,72.00
2022-08-26T10:57:11.814Z,72.00
2022-08-26T11:00:09.100Z,72.90
2022-08-26T11:02:51.990Z,71.40
2022-08-26T11:05:40.208Z,71.90
2022-08-26T11:14:03.591Z,72.20
2022-08-26T11:20:02.038Z,73.00
2022-08-26T11:22:35.154Z,73.60
2022-08-26T11:25:13.544Z,72.60
2022-08-26T11:27:40.231Z,73.00
2022-08-26T11:30:38.214Z,73.30
2022-08-26T11:33:07.956Z,72.90
2022-08-26T11:35:34.946Z,72.80
2022-08-26T11:38:27.886Z,73.00
2022-08-26T11:41:12.043Z,72.60
2022-08-26T11:43:42.146Z,72.40
2022-08-26T11:46:31.531Z,71.90
2022-08-26T11:49:05.415Z,72.10
2022-08-26T11:51:40.930Z,71.90
2022-08-26T11:54:35.649Z,71.00
2022-08-26T11:57:09.266Z,72.00
2022-08-26T11:59:40.119Z,71.00
2022-08-26T12:02:14.849Z,71.20
2022-08-26T12:04:53.180Z,71.10
2022-08-26T12:08:03.285Z,71.80
2022-08-26T12:10:39.000Z,70.60
2022-08-26T12:13:07.870Z,70.90
2022-08-26T12:16:13.237Z,71.30
2022-08-26T12:18:41.143Z,70.40
2022-08-26T12:21:13.548Z,71.20
2022-08-26T12:23:44.996Z,69.70
2022-08-26T12:26:42.276Z,69.60
2022-08-26T12:35:20.826Z,69.80
2022-08-26T12:37:55.304Z,71.00
2022-08-26T12:40:27.962Z,71.00
2022-08-26T12:49:08.480Z,69.90
2022-08-26T12:51:40.177Z,69.40
2022-08-26T12:56:54.959Z,70.10
2022-08-26T12:59:25.664Z,69.90
2022-08-26T13:02:00.020Z,70.40
2022-08-26T13:04:39.317Z,69.10
2022-08-26T13:10:40.624Z,70.10
2022-08-26T13:13:10.522Z,70.90
2022-08-26T13:15:43.236Z,70.90
2022-08-26T13:18:09.986Z,70.20
2022-08-26T13:20:42.476Z,70.60
2022-08-26T13:23:11.779Z,70.80
2022-08-26T13:25:58.937Z,71.00
2022-08-26T13:28:31.945Z,71.20
2022-08-26T13:30:59.060Z,71.20
2022-08-26T13:33:47.215Z,71.50
2022-08-26T13:36:22.340Z,70.90
2022-08-26T13:38:58.649Z,71.20
2022-08-26T13:41:29.138Z,71.50
2022-08-26T13:44:02.272Z,72.10
2022-08-26T13:49:17.723Z,72.20
2022-08-26T13:52:03.196Z,72.20
2022-08-26T13:54:30.076Z,71.90
2022-08-26T13:57:05.846Z,72.20
2022-08-26T13:59:32.547Z,72.30
2022-08-26T14:02:06.660Z,73.10
2022-08-26T14:04:43.063Z,72.70
2022-08-26T14:07:25.740Z,73.50
2022-08-26T14:10:01.356Z,72.80
2022-08-26T14:15:22.003Z,73.30
2022-08-26T14:18:01.532Z,73.40
2022-08-26T14:20:39.079Z,73.20
2022-08-26T14:23:14.005Z,73.00
2022-08-26T14:25:47.440Z,72.50
2022-08-26T14:28:14.372Z,72.80
2022-08-26T14:30:43.036Z,72.50
2022-08-26T14:33:12.960Z,72.00
2022-08-26T14:35:52.361Z,71.30
2022-08-26T14:38:19.234Z,71.60
2022-08-26T14:40:46.319Z,71.10
2022-08-26T14:45:54.985Z,70.50
2022-08-26T14:48:28.656Z,70.00
2022-08-26T14:55:00.392Z,70.30
2022-08-26T14:57:49.925Z,70.20
2022-08-26T15:00:31.854Z,70.30
2022-08-26T15:08:40.779Z,71.20
2022-08-26T15:11:07.591Z,70.80
2022-08-26T15:13:34.544Z,70.30
2022-08-26T15:16:01.482Z,69.50
2022-08-26T15:18:28.568Z,70.10
2022-08-26T15:20:55.679Z,69.90
2022-08-26T15:23:25.360Z,70.70
2022-08-26T15:29:36.283Z,70.00
2022-08-26T15:49:18.493Z,68.20
2022-08-26T15:55:14.489Z,68.20
2022-08-26T15:57:46.959Z,67.70
2022-08-26T16:00:27.225Z,67.30
2022-08-26T16:03:13.230Z,67.00
2022-08-26T16:09:47.458Z,66.00
2022-08-26T16:12:48.376Z,65.90
2022-08-26T16:15:23.514Z,65.60
2022-08-26T16:18:06.547Z,65.30
2022-08-26T16:21:13.773Z,64.10
2022-08-26T16:23:44.920Z,63.60
2022-08-26T16:26:19.328Z,64.80
2022-08-26T16:28:49.299Z,63.90
2022-08-26T16:31:16.848Z,64.30
2022-08-26T16:34:23.235Z,64.90
2022-08-26T16:36:58.320Z,64.90
2022-08-26T16:39:34.650Z,64.40
2022-08-26T16:54:25.575Z,66.30
2022-08-26T17:00:08.559Z,66.00
2022-08-26T17:02:38.276Z,66.10
2022-08-26T17:05:09.167Z,65.90
2022-08-26T17:07:43.503Z,65.10
2022-08-26T17:10:10.924Z,65.30
2022-08-26T17:12:39.736Z,65.30
2022-08-26T17:15:11.780Z,64.70
2022-08-26T17:18:39.244Z,65.20
2022-08-26T17:21:21.709Z,65.30
2022-08-26T17:23:52.259Z,65.00
2022-08-26T17:29:26.234Z,64.80
2022-08-26T17:31:53.355Z,64.90
2022-08-26T17:34:21.315Z,64.20
2022-08-26T17:36:49.436Z,64.00
2022-08-26T17:40:35.020Z,64.10
2022-08-26T17:47:24.414Z,64.00
2022-08-26T17:51:49.514Z,64.00
2022-08-26T17:54:19.762Z,64.00
2022-08-26T17:56:46.647Z,64.20
2022-08-26T17:59:30.724Z,64.50
2022-08-26T18:01:58.270Z,63.10
2022-08-26T18:04:25.103Z,62.90
2022-08-26T18:06:51.968Z,63.50
2022-08-26T18:09:18.943Z,64.30
2022-08-26T18:11:45.925Z,64.90
2022-08-26T18:14:21.322Z,65.20
2022-08-26T18:16:48.172Z,65.30
2022-08-26T18:19:14.925Z,65.40
2022-08-26T18:22:01.795Z,65.80
2022-08-26T18:24:28.631Z,66.00
2022-08-26T18:26:55.441Z,65.70
2022-08-26T18:29:30.859Z,66.20
2022-08-26T18:32:06.908Z,66.00
2022-08-26T18:34:36.129Z,66.20
2022-08-26T18:37:14.138Z,66.50
2022-08-26T18:39:56.178Z,66.50
2022-08-26T18:45:46.023Z,66.10
2022-08-26T19:01:01.827Z,66.70
2022-08-26T19:03:28.629Z,66.70
2022-08-26T19:06:21.388Z,66.70
2022-08-26T19:09:08.903Z,66.60
2022-08-26T19:11:45.581Z,66.30
2022-08-26T19:14:20.713Z,66.80
2022-08-26T19:16:51.370Z,66.90
2022-08-26T19:19:24.254Z,67.30
2022-08-26T19:21:51.098Z,67.40
2022-08-26T19:24:19.580Z,67.70
2022-08-26T19:26:58.288Z,67.90
2022-08-26T19:29:28.356Z,68.00
2022-08-26T19:32:42.097Z,68.00
2022-08-26T19:34:44.504Z,68.00
2022-08-26T19:37:20.244Z,68.30
2022-08-26T19:39:47.847Z,68.50
2022-08-26T19:42:16.081Z,68.50
2022-08-26T19:44:55.176Z,68.60
2022-08-26T19:47:35.710Z,68.70
2022-08-26T19:50:16.384Z,68.50
2022-08-26T19:53:11.040Z,68.60
2022-08-26T19:55:38.207Z,68.80
2022-08-26T19:58:05.341Z,68.70
2022-08-26T20:07:08.662Z,69.20
2022-08-26T20:09:38.835Z,69.30
2022-08-26T20:12:08.701Z,69.60
2022-08-26T20:14:37.079Z,70.10
2022-08-26T20:19:58.737Z,69.80
2022-08-26T20:22:28.415Z,69.90
2022-08-26T20:24:55.341Z,70.00
2022-08-26T20:27:23.130Z,70.10
2022-08-26T20:29:50.070Z,70.30
2022-08-26T20:32:27.711Z,70.10
2022-08-26T20:34:58.400Z,70.30
2022-08-26T20:37:34.639Z,70.80
2022-08-26T20:42:59.285Z,70.70
2022-08-26T20:45:25.980Z,70.90
2022-08-26T20:48:09.321Z,71.00
2022-08-26T20:50:36.199Z,71.10
2022-08-26T20:53:29.390Z,71.60
2022-08-26T20:56:14.289Z,71.20
2022-08-26T21:01:24.497Z,71.30
2022-08-26T21:06:34.612Z,71.40
2022-08-26T21:09:16.504Z,71.60
2022-08-26T21:17:36.094Z,71.90
2022-08-26T21:20:05.992Z,72.10
2022-08-26T21:28:45.572Z,71.90
2022-08-26T21:31:28.816Z,72.10
2022-08-26T21:50:57.216Z,74.80
2022-08-26T21:53:37.587Z,75.50
2022-08-26T21:56:11.278Z,75.80
2022-08-26T21:58:44.789Z,76.10
2022-08-26T22:01:29.814Z,76.50
2022-08-26T22:03:57.917Z,76.80
2022-08-26T22:06:38.896Z,77.10
2022-08-26T22:09:21.894Z,77.40
2022-08-26T22:11:48.971Z,77.80
2022-08-26T22:14:17.416Z,77.90
2022-08-26T22:16:51.109Z,78.00
2022-08-26T22:19:26.788Z,78.10
2022-08-26T22:22:05.437Z,78.20
2022-08-26T22:24:32.346Z,78.50
2022-08-26T22:27:11.394Z,78.40
2022-08-26T22:29:41.420Z,78.40
2022-08-26T22:32:08.804Z,78.40
2022-08-26T22:34:41.554Z,78.40
2022-08-26T22:37:20.375Z,78.80
2022-08-26T22:39:47.197Z,78.70
2022-08-26T22:42:23.062Z,78.80
2022-08-26T22:44:53.368Z,78.60
2022-08-26T22:47:20.367Z,78.60
2022-08-26T22:49:55.309Z,78.70
2022-08-26T22:52:28.293Z,78.90
2022-08-26T22:55:05.470Z,79.20
2022-08-26T22:57:32.259Z,79.20
2022-08-26T23:00:02.423Z,79.50
2022-08-26T23:02:34.754Z,79.60
2022-08-26T23:05:10.745Z,79.70
2022-08-26T23:07:55.830Z,79.70
2022-08-26T23:13:26.065Z,80.00
2022-08-26T23:16:03.984Z,80.40
2022-08-26T23:18:30.776Z,80.10
2022-08-26T23:21:00.192Z,80.20
2022-08-26T23:23:30.204Z,80.50
2022-08-26T23:26:16.684Z,80.50
2022-08-26T23:28:56.218Z,80.10
2022-08-26T23:31:23.344Z,80.10
2022-08-26T23:33:50.134Z,80.40
2022-08-26T23:36:17.867Z,80.20
2022-08-26T23:38:54.373Z,80.10
2022-08-26T23:44:28.941Z,80.10
2022-08-26T23:47:02.548Z,80.00
2022-08-26T23:49:39.877Z,79.90
2022-08-26T23:52:15.376Z,79.80
2022-08-26T23:54:48.544Z,79.80
2022-08-26T23:57:20.330Z,79.90
2022-08-26T23:59:51.156Z,80.10
